createdAt,value
2018-09-12T00:01:23.539Z,6.50
2018-09-12T00:03:51.961Z,4.20
2018-09-12T00:06:20.417Z,5.57
2018-09-12T00:08:48.740Z,3.70
2018-09-12T00:11:17.065Z,5.43
2018-09-12T00:13:45.496Z,4.20
2018-09-12T00:16:13.818Z,7.50
2018-09-12T00:18:42.163Z,5.23
2018-09-12T00:21:10.524Z,6.90
2018-09-12T00:23:38.897Z,7.33
2018-09-12T00:26:07.286Z,8.23
2018-09-12T00:28:35.740Z,6.43
2018-09-12T00:31:04.094Z,5.10
2018-09-12T00:33:32.585Z,6.60
2018-09-12T00:36:01.261Z,8.03
2018-09-12T00:38:29.592Z,6.60
2018-09-12T00:40:57.918Z,7.13
2018-09-12T00:43:26.300Z,6.70
2018-09-12T00:45:54.764Z,8.90
2018-09-12T00:48:23.153Z,5.60
2018-09-12T00:50:51.578Z,6.80
2018-09-12T00:53:19.880Z,4.50
2018-09-12T00:55:48.379Z,4.93
2018-09-12T00:58:16.692Z,3.70
2018-09-12T01:00:45.094Z,5.50
2018-09-12T01:03:13.413Z,7.67
2018-09-12T01:05:42.814Z,6.10
2018-09-12T01:08:12.768Z,8.57
2018-09-12T01:10:41.102Z,7.37
2018-09-12T01:13:09.899Z,5.20
2018-09-12T01:15:38.227Z,4.13
2018-09-12T01:18:06.809Z,4.50
2018-09-12T01:20:35.124Z,5.57
2018-09-12T01:23:03.626Z,8.13
2018-09-12T01:25:31.938Z,5.63
2018-09-12T01:28:00.570Z,9.73
2018-09-12T01:30:28.902Z,5.30
2018-09-12T01:32:57.721Z,5.13
2018-09-12T01:35:26.178Z,7.63
2018-09-12T01:37:54.570Z,5.07
2018-09-12T01:40:22.900Z,8.30
2018-09-12T01:42:51.314Z,4.73
2018-09-12T01:45:20.177Z,5.17
2018-09-12T01:47:48.973Z,6.63
2018-09-12T01:50:17.359Z,8.07
2018-09-12T01:52:46.609Z,5.77
2018-09-12T01:55:15.030Z,5.00
2018-09-12T01:57:43.465Z,5.17
2018-09-12T02:00:13.865Z,5.40
2018-09-12T02:02:42.371Z,5.37
2018-09-12T02:05:10.758Z,6.37
2018-09-12T02:07:39.109Z,4.57
2018-09-12T02:10:09.192Z,5.50
2018-09-12T02:12:37.542Z,5.53
2018-09-12T02:15:06.418Z,5.40
2018-09-12T02:17:34.785Z,7.37
2018-09-12T02:20:03.319Z,6.43
2018-09-12T02:22:31.746Z,8.03
2018-09-12T02:25:00.386Z,7.37
2018-09-12T02:27:28.970Z,8.43
2018-09-12T02:29:57.549Z,5.20
2018-09-12T02:32:25.867Z,5.83
2018-09-12T02:34:54.172Z,5.60
2018-09-12T02:37:22.710Z,5.80
2018-09-12T02:39:51.026Z,6.23
2018-09-12T02:42:19.505Z,8.30
2018-09-12T02:44:47.811Z,7.87
2018-09-12T02:47:21.554Z,5.00
2018-09-12T02:49:49.864Z,4.43
2018-09-12T02:52:18.171Z,6.63
2018-09-12T02:54:46.503Z,6.90
2018-09-12T02:57:15.211Z,5.40
2018-09-12T02:59:43.665Z,4.33
2018-09-12T03:02:12.041Z,4.60
2018-09-12T03:04:51.689Z,8.03
2018-09-12T03:07:20.005Z,8.17
2018-09-12T03:09:48.391Z,6.57
2018-09-12T03:12:16.800Z,5.00
2018-09-12T03:14:45.219Z,6.83
2018-09-12T03:17:14.116Z,6.40
2018-09-12T03:19:42.531Z,7.77
2018-09-12T03:22:10.895Z,8.07
2018-09-12T03:24:39.294Z,6.77
2018-09-12T03:27:07.601Z,6.23
2018-09-12T03:29:35.938Z,5.27
2018-09-12T03:32:04.263Z,10.97
2018-09-12T03:34:32.817Z,7.80
2018-09-12T03:37:01.543Z,9.03
2018-09-12T03:39:29.865Z,6.87
2018-09-12T03:41:58.190Z,9.40
2018-09-12T03:44:26.496Z,5.73
2018-09-12T03:46:54.938Z,14.17
2018-09-12T03:49:23.436Z,15.47
2018-09-12T03:51:51.732Z,11.27
2018-09-12T03:54:20.448Z,10.07
2018-09-12T03:56:48.769Z,7.60
2018-09-12T03:59:17.220Z,11.73
2018-09-12T04:01:45.645Z,10.73
2018-09-12T04:04:14.416Z,9.60
2018-09-12T04:06:42.712Z,9.23
2018-09-12T04:09:11.088Z,8.40
2018-09-12T04:11:39.391Z,7.43
2018-09-12T04:14:07.724Z,10.10
2018-09-12T04:16:36.205Z,8.63
2018-09-12T04:19:04.601Z,6.57
2018-09-12T04:21:32.943Z,9.07
2018-09-12T04:24:01.469Z,5.63
2018-09-12T04:26:29.911Z,7.67
2018-09-12T04:28:58.319Z,6.80
2018-09-12T04:31:26.625Z,7.67
2018-09-12T04:33:54.976Z,24.67
2018-09-12T04:36:23.334Z,7.77
2018-09-12T04:38:52.064Z,7.20
2018-09-12T04:41:20.501Z,6.10
2018-09-12T04:43:48.866Z,8.00
2018-09-12T04:46:17.325Z,7.57
2018-09-12T04:48:45.612Z,7.37
2018-09-12T04:51:13.983Z,6.27
2018-09-12T04:53:42.312Z,7.03
2018-09-12T04:56:10.830Z,8.03
2018-09-12T04:58:39.184Z,6.80
2018-09-12T05:01:07.775Z,6.90
2018-09-12T05:03:36.328Z,7.63
2018-09-12T05:06:04.768Z,9.33
2018-09-12T05:08:33.141Z,8.07
2018-09-12T05:11:01.531Z,9.40
2018-09-12T05:13:30.013Z,8.53
2018-09-12T05:15:58.498Z,10.00
2018-09-12T05:18:27.123Z,9.07
2018-09-12T05:20:55.537Z,11.00
2018-09-12T05:23:23.879Z,5.33
2018-09-12T05:25:52.373Z,8.43
2018-09-12T05:28:20.854Z,8.90
2018-09-12T05:30:49.380Z,8.57
2018-09-12T05:33:17.740Z,6.20
2018-09-12T05:35:46.420Z,7.57
2018-09-12T05:38:15.086Z,7.10
2018-09-12T05:40:43.666Z,5.57
2018-09-12T05:43:12.021Z,6.30
2018-09-12T05:45:40.423Z,6.10
2018-09-12T05:48:08.889Z,7.20
2018-09-12T05:50:37.279Z,6.20
2018-09-12T05:53:05.726Z,6.50
2018-09-12T05:55:34.266Z,8.93
2018-09-12T05:58:02.665Z,6.50
2018-09-12T06:00:31.061Z,5.73
2018-09-12T06:02:59.457Z,9.80
2018-09-12T06:05:27.806Z,7.80
2018-09-12T06:07:56.332Z,5.77
2018-09-12T06:10:24.696Z,6.00
2018-09-12T06:12:53.085Z,7.27
2018-09-12T06:15:21.413Z,8.63
2018-09-12T06:17:49.795Z,5.90
2018-09-12T06:20:18.283Z,5.23
2018-09-12T06:22:46.738Z,5.90
2018-09-12T06:25:15.109Z,4.17
2018-09-12T06:27:43.440Z,6.17
2018-09-12T06:30:11.852Z,7.27
2018-09-12T06:32:40.209Z,5.37
2018-09-12T06:35:08.602Z,4.60
2018-09-12T06:37:36.950Z,10.33
2018-09-12T06:40:05.611Z,5.07
2018-09-12T06:42:34.214Z,5.90
2018-09-12T06:45:02.534Z,7.00
2018-09-12T06:47:31.276Z,4.50
2018-09-12T06:49:59.750Z,8.70
2018-09-12T06:52:28.080Z,5.60
2018-09-12T06:54:56.597Z,6.33
2018-09-12T06:57:25.086Z,6.70
2018-09-12T06:59:53.607Z,7.17
2018-09-12T07:02:22.284Z,10.47
2018-09-12T07:04:50.612Z,4.13
2018-09-12T07:07:18.953Z,6.60
2018-09-12T07:09:47.439Z,9.67
2018-09-12T07:12:15.807Z,8.20
2018-09-12T07:14:44.231Z,3.83
2018-09-12T07:17:12.643Z,4.53
2018-09-12T07:19:41.017Z,6.27
2018-09-12T07:22:09.347Z,7.13
2018-09-12T07:24:37.723Z,4.60
2018-09-12T07:27:06.233Z,4.27
2018-09-12T07:29:34.711Z,6.57
2018-09-12T07:32:03.881Z,5.63
2018-09-12T07:34:32.373Z,7.37
2018-09-12T07:37:01.275Z,4.90
2018-09-12T07:39:29.688Z,5.37
2018-09-12T07:41:58.084Z,7.33
2018-09-12T07:44:26.481Z,4.40
2018-09-12T07:46:54.900Z,4.37
2018-09-12T07:49:23.287Z,8.23
2018-09-12T07:51:51.674Z,6.67
2018-09-12T07:54:20.043Z,5.30
2018-09-12T07:56:48.573Z,10.53
2018-09-12T07:59:17.341Z,7.13
2018-09-12T08:01:45.750Z,5.40
2018-09-12T08:04:14.110Z,4.80
2018-09-12T08:06:42.545Z,8.03
2018-09-12T08:09:12.611Z,5.30
2018-09-12T08:11:41.157Z,9.00
2018-09-12T08:14:09.632Z,7.27
2018-09-12T08:16:38.191Z,7.10
2018-09-12T08:19:06.634Z,3.27
2018-09-12T08:21:35.065Z,4.20
2018-09-12T08:24:04.576Z,7.50
2018-09-12T08:26:32.952Z,4.80
2018-09-12T08:29:01.564Z,5.97
2018-09-12T08:31:30.384Z,5.80
2018-09-12T08:33:58.713Z,4.73
2018-09-12T08:36:27.182Z,6.63
2018-09-12T08:38:55.681Z,4.50
2018-09-12T08:41:24.246Z,7.00
2018-09-12T08:43:52.597Z,3.83
2018-09-12T08:46:21.059Z,3.47
2018-09-12T08:48:49.375Z,6.03
2018-09-12T08:51:17.835Z,4.87
2018-09-12T08:53:46.187Z,3.23
2018-09-12T08:56:14.603Z,5.20
2018-09-12T08:58:43.317Z,5.43
2018-09-12T09:01:11.890Z,4.90
2018-09-12T09:03:40.358Z,5.10
2018-09-12T09:06:08.932Z,6.63
2018-09-12T09:08:37.333Z,7.83
2018-09-12T09:11:05.939Z,5.80
2018-09-12T09:13:34.579Z,4.33
2018-09-12T09:16:02.977Z,4.23
2018-09-12T09:18:31.559Z,4.40
2018-09-12T09:21:00.038Z,4.80
2018-09-12T09:23:28.487Z,5.17
2018-09-12T09:25:56.843Z,6.23
2018-09-12T09:28:25.271Z,4.50
2018-09-12T09:30:53.644Z,5.87
2018-09-12T09:33:22.013Z,4.13
2018-09-12T09:35:50.508Z,5.87
2018-09-12T09:38:18.815Z,7.53
2018-09-12T09:40:47.208Z,9.27
2018-09-12T09:43:15.565Z,4.30
2018-09-12T09:45:44.009Z,3.90
2018-09-12T09:48:12.534Z,7.17
2018-09-12T09:50:40.822Z,3.83
2018-09-12T09:53:09.363Z,3.70
2018-09-12T09:55:37.715Z,3.90
2018-09-12T09:58:06.126Z,7.70
2018-09-12T10:00:43.184Z,4.37
2018-09-12T10:03:18.204Z,4.47
2018-09-12T10:05:52.273Z,4.33
2018-09-12T10:08:25.805Z,4.83
2018-09-12T10:10:54.294Z,6.10
2018-09-12T10:13:22.632Z,7.73
2018-09-12T10:15:51.005Z,4.90
2018-09-12T10:18:19.350Z,5.30
2018-09-12T10:20:47.796Z,9.63
2018-09-12T10:23:16.381Z,7.10
2018-09-12T10:25:44.703Z,4.73
2018-09-12T10:28:13.061Z,3.87
2018-09-12T10:30:41.390Z,8.17
2018-09-12T10:33:10.327Z,4.10
2018-09-12T10:35:38.697Z,6.40
2018-09-12T10:38:07.042Z,5.00
2018-09-12T10:40:35.373Z,9.00
2018-09-12T10:43:03.872Z,4.80
2018-09-12T10:45:32.280Z,4.30
2018-09-12T10:48:01.326Z,4.80
2018-09-12T10:50:29.751Z,10.07
2018-09-12T10:52:58.152Z,5.27
2018-09-12T10:55:27.672Z,5.40
2018-09-12T10:57:56.000Z,4.93
2018-09-12T11:00:24.384Z,3.80
2018-09-12T11:02:53.339Z,4.73
2018-09-12T11:05:22.644Z,5.70
2018-09-12T11:08:02.711Z,6.23
2018-09-12T11:10:31.061Z,7.03
2018-09-12T11:12:59.460Z,4.70
2018-09-12T11:15:28.650Z,4.30
2018-09-12T11:17:57.768Z,12.63
2018-09-12T11:20:26.349Z,4.10
2018-09-12T11:22:54.731Z,3.27
2018-09-12T11:25:23.046Z,3.40
2018-09-12T11:27:51.468Z,3.60
2018-09-12T11:30:19.828Z,3.43
2018-09-12T11:32:48.182Z,4.23
2018-09-12T11:35:16.610Z,3.93
2018-09-12T11:37:44.961Z,5.30
2018-09-12T11:40:13.442Z,3.50
2018-09-12T11:42:41.772Z,3.10
2018-09-12T11:45:10.194Z,3.90
2018-09-12T11:47:38.574Z,5.43
2018-09-12T11:50:07.001Z,4.70
2018-09-12T11:52:35.755Z,3.07
2018-09-12T11:55:04.170Z,3.73
2018-09-12T11:57:32.730Z,3.10
2018-09-12T12:00:01.324Z,4.40
2018-09-12T12:02:29.812Z,5.80
2018-09-12T12:04:58.166Z,2.80
2018-09-12T12:07:26.566Z,2.20
2018-09-12T12:09:55.070Z,3.53
2018-09-12T12:12:23.688Z,2.97
2018-09-12T12:14:52.217Z,3.20
2018-09-12T12:17:20.651Z,2.37
2018-09-12T12:19:49.125Z,2.63
2018-09-12T12:22:17.558Z,2.50
2018-09-12T12:24:45.955Z,2.97
2018-09-12T12:27:14.341Z,4.40
2018-09-12T12:29:42.710Z,3.53
2018-09-12T12:32:11.092Z,3.57
2018-09-12T12:34:39.457Z,2.00
2018-09-12T12:37:07.866Z,3.83
2018-09-12T12:39:36.240Z,3.00
2018-09-12T12:42:04.616Z,2.50
2018-09-12T12:44:33.051Z,3.07
2018-09-12T12:47:01.590Z,4.43
2018-09-12T12:49:29.983Z,2.23
2018-09-12T12:51:58.410Z,2.50
2018-09-12T12:54:26.768Z,4.90
2018-09-12T12:56:55.151Z,2.77
2018-09-12T12:59:23.551Z,2.93
2018-09-12T13:01:52.065Z,2.83
2018-09-12T13:04:20.428Z,7.60
2018-09-12T13:06:48.958Z,3.17
2018-09-12T13:09:17.376Z,2.33
2018-09-12T13:11:45.789Z,2.83
2018-09-12T13:14:14.290Z,2.50
2018-09-12T13:16:42.781Z,2.87
2018-09-12T13:19:11.295Z,3.43
2018-09-12T13:21:39.846Z,4.07
2018-09-12T13:24:08.127Z,4.03
2018-09-12T13:26:36.512Z,3.60
2018-09-12T13:29:05.196Z,4.60
2018-09-12T13:31:33.617Z,2.50
2018-09-12T13:34:01.994Z,4.13
2018-09-12T13:36:30.370Z,4.30
2018-09-12T13:38:58.843Z,2.93
2018-09-12T13:41:27.438Z,3.30
2018-09-12T13:43:55.833Z,3.10
2018-09-12T13:46:24.207Z,3.57
2018-09-12T13:48:52.696Z,4.57
2018-09-12T13:51:21.247Z,3.13
2018-09-12T13:53:49.621Z,4.87
2018-09-12T13:56:18.167Z,5.93
2018-09-12T13:58:46.567Z,3.30
2018-09-12T14:01:14.972Z,3.97
2018-09-12T14:03:43.413Z,3.30
2018-09-12T14:06:12.512Z,3.13
2018-09-12T14:08:40.892Z,2.77
2018-09-12T14:11:09.266Z,3.67
2018-09-12T14:13:37.697Z,3.50
2018-09-12T14:16:06.109Z,3.10
2018-09-12T14:18:34.514Z,5.57
2018-09-12T14:21:02.958Z,3.83
2018-09-12T14:23:32.090Z,2.77
2018-09-12T14:26:00.575Z,3.30
2018-09-12T14:28:29.000Z,3.73
2018-09-12T14:30:57.352Z,3.80
2018-09-12T14:33:25.766Z,2.97
2018-09-12T14:35:54.200Z,3.03
2018-09-12T14:38:22.625Z,3.20
2018-09-12T14:40:51.040Z,3.03
2018-09-12T14:43:19.528Z,2.70
2018-09-12T14:45:47.959Z,2.50
2018-09-12T14:48:16.432Z,3.83
2018-09-12T14:50:45.125Z,3.20
2018-09-12T14:53:13.467Z,2.90
2018-09-12T14:55:41.875Z,5.57
2018-09-12T14:58:10.371Z,2.80
2018-09-12T15:00:38.761Z,2.63
2018-09-12T15:03:07.128Z,2.67
2018-09-12T15:05:35.539Z,3.67
2018-09-12T15:08:03.982Z,3.33
2018-09-12T15:10:32.408Z,3.57
2018-09-12T15:13:01.417Z,5.00
2018-09-12T15:15:29.800Z,2.90
2018-09-12T15:17:58.145Z,4.17
2018-09-12T15:20:26.502Z,3.00
2018-09-12T15:22:54.886Z,4.27
2018-09-12T15:25:23.281Z,4.60
2018-09-12T15:27:51.590Z,2.73
2018-09-12T15:30:20.005Z,4.20
2018-09-12T15:32:48.391Z,2.60
2018-09-12T15:35:16.770Z,5.33
2018-09-12T15:37:45.238Z,3.50
2018-09-12T15:40:13.627Z,3.63
2018-09-12T15:42:42.066Z,2.90
2018-09-12T15:45:10.558Z,3.30
2018-09-12T15:47:38.920Z,2.93
2018-09-12T15:50:07.316Z,2.87
2018-09-12T15:52:35.683Z,3.23
2018-09-12T15:55:04.082Z,2.93
2018-09-12T15:57:32.493Z,2.90
2018-09-12T16:00:01.001Z,2.57
2018-09-12T16:02:29.356Z,4.83
2018-09-12T16:04:57.749Z,2.87
2018-09-12T16:07:26.317Z,2.63
2018-09-12T16:09:54.965Z,2.80
2018-09-12T16:12:23.360Z,3.17
2018-09-12T16:14:51.789Z,3.13
2018-09-12T16:17:20.137Z,3.13
2018-09-12T16:19:48.549Z,4.63
2018-09-12T16:22:17.626Z,3.17
2018-09-12T16:24:46.064Z,3.20
2018-09-12T16:27:14.486Z,2.67
2018-09-12T16:29:42.901Z,3.50
2018-09-12T16:32:11.335Z,2.60
2018-09-12T16:34:39.699Z,2.97
2018-09-12T16:37:08.652Z,2.53
2018-09-12T16:39:37.023Z,2.17
2018-09-12T16:42:05.392Z,3.20
2018-09-12T16:44:33.801Z,2.80
2018-09-12T16:47:02.533Z,1.87
2018-09-12T16:49:30.976Z,2.77
2018-09-12T16:51:59.395Z,3.07
2018-09-12T16:54:27.874Z,2.43
2018-09-12T16:56:56.324Z,2.40
2018-09-12T16:59:24.699Z,2.40
2018-09-12T17:01:53.132Z,2.10
2018-09-12T17:04:21.646Z,5.63
2018-09-12T17:06:50.121Z,3.70
2018-09-12T17:09:18.591Z,2.27
2018-09-12T17:11:47.007Z,2.57
2018-09-12T17:14:15.742Z,4.20
2018-09-12T17:16:44.214Z,2.87
2018-09-12T17:19:12.600Z,4.30
2018-09-12T17:21:41.316Z,3.20
2018-09-12T17:24:09.722Z,4.60
2018-09-12T17:26:38.239Z,2.50
2018-09-12T17:29:06.760Z,2.77
2018-09-12T17:31:35.194Z,3.50
2018-09-12T17:34:04.006Z,3.70
2018-09-12T17:36:32.530Z,3.63
2018-09-12T17:39:01.968Z,4.00
2018-09-12T17:41:30.499Z,6.30
2018-09-12T17:43:58.870Z,3.90
2018-09-12T17:46:27.367Z,4.53
2018-09-12T17:48:55.788Z,4.07
2018-09-12T17:51:24.261Z,4.30
2018-09-12T17:53:52.855Z,5.10
2018-09-12T17:56:21.367Z,6.03
2018-09-12T17:58:50.106Z,5.90
2018-09-12T18:01:18.584Z,4.77
2018-09-12T18:03:47.015Z,10.80
2018-09-12T18:06:15.456Z,4.70
2018-09-12T18:08:43.859Z,5.60
2018-09-12T18:11:12.475Z,5.13
2018-09-12T18:13:40.893Z,6.70
2018-09-12T18:16:09.459Z,6.83
2018-09-12T18:18:37.954Z,7.90
2018-09-12T18:21:06.541Z,8.30
2018-09-12T18:23:35.092Z,9.67
2018-09-12T18:26:04.009Z,8.37
2018-09-12T18:28:32.429Z,12.73
2018-09-12T18:31:01.070Z,10.70
2018-09-12T18:33:29.510Z,11.50
2018-09-12T18:35:57.975Z,11.37
2018-09-12T18:38:26.778Z,11.77
2018-09-12T18:40:55.389Z,16.50
2018-09-12T18:43:24.018Z,14.43
2018-09-12T18:45:52.962Z,16.80
2018-09-12T18:48:21.433Z,14.90
2018-09-12T18:50:49.998Z,13.13
2018-09-12T18:53:18.548Z,14.50
2018-09-12T18:55:47.103Z,20.60
2018-09-12T18:58:15.590Z,10.50
2018-09-12T19:00:44.144Z,11.43
2018-09-12T19:03:12.603Z,18.33
2018-09-12T19:05:41.039Z,14.60
2018-09-12T19:08:09.477Z,16.37
2018-09-12T19:10:38.176Z,15.63
2018-09-12T19:13:06.698Z,14.70
2018-09-12T19:15:35.218Z,13.23
2018-09-12T19:18:03.699Z,16.00
2018-09-12T19:20:32.106Z,15.00
2018-09-12T19:23:00.699Z,17.43
2018-09-12T19:25:29.130Z,18.70
2018-09-12T19:27:57.587Z,21.27
2018-09-12T19:30:26.068Z,15.00
2018-09-12T19:32:55.047Z,14.90
2018-09-12T19:35:23.558Z,15.80
2018-09-12T19:37:51.942Z,18.30
2018-09-12T19:40:20.558Z,15.13
2018-09-12T19:42:49.187Z,19.90
2018-09-12T19:45:17.596Z,20.27
2018-09-12T19:47:46.015Z,18.03
2018-09-12T19:50:14.743Z,17.63
2018-09-12T19:52:43.202Z,19.07
2018-09-12T19:55:11.794Z,20.30
2018-09-12T19:57:40.338Z,21.13
2018-09-12T20:00:13.305Z,24.63
2018-09-12T20:02:41.851Z,22.43
2018-09-12T20:05:11.278Z,25.57
2018-09-12T20:07:39.651Z,23.03
2018-09-12T20:10:08.454Z,20.80
2018-09-12T20:12:38.324Z,21.97
2018-09-12T20:15:06.811Z,24.70
2018-09-12T20:17:35.279Z,27.10
2018-09-12T20:20:03.692Z,24.07
2018-09-12T20:22:32.209Z,24.93
2018-09-12T20:25:01.254Z,28.50
2018-09-12T20:27:29.643Z,24.93
2018-09-12T20:29:58.615Z,26.53
2018-09-12T20:32:27.121Z,26.03
2018-09-12T20:34:55.894Z,30.73
2018-09-12T20:37:24.304Z,28.20
2018-09-12T20:39:52.739Z,30.17
2018-09-12T20:42:21.155Z,30.03
2018-09-12T20:44:49.656Z,26.00
2018-09-12T20:47:18.045Z,27.60
2018-09-12T20:49:46.486Z,28.50
2018-09-12T20:52:14.959Z,33.33
2018-09-12T20:54:43.386Z,34.30
2018-09-12T20:57:11.884Z,25.37
2018-09-12T20:59:40.348Z,25.63
2018-09-12T21:02:08.753Z,30.70
2018-09-12T21:04:37.168Z,35.57
2018-09-12T21:07:05.603Z,35.50
2018-09-12T21:09:33.985Z,30.73
2018-09-12T21:12:03.498Z,33.97
2018-09-12T21:14:31.842Z,36.17
2018-09-12T21:17:00.306Z,32.20
2018-09-12T21:19:28.718Z,30.03
2018-09-12T21:21:57.136Z,32.20
2018-09-12T21:24:25.548Z,34.07
2018-09-12T21:26:54.154Z,39.17
2018-09-12T21:29:22.630Z,38.13
2018-09-12T21:31:50.988Z,34.47
2018-09-12T21:34:19.630Z,43.40
2018-09-12T21:36:48.058Z,39.30
2018-09-12T21:39:16.433Z,49.30
2018-09-12T21:41:44.786Z,39.97
2018-09-12T21:44:13.181Z,42.70
2018-09-12T21:46:41.567Z,36.33
2018-09-12T21:49:10.086Z,40.33
2018-09-12T21:51:38.612Z,37.47
2018-09-12T21:54:06.963Z,40.13
2018-09-12T21:56:35.381Z,37.13
2018-09-12T21:59:03.729Z,40.10
2018-09-12T22:01:32.055Z,40.77
2018-09-12T22:04:00.853Z,39.80
2018-09-12T22:06:29.197Z,41.70
2018-09-12T22:08:58.932Z,37.77
2018-09-12T22:11:27.417Z,43.73
2018-09-12T22:13:55.778Z,41.13
2018-09-12T22:16:25.019Z,39.50
2018-09-12T22:18:53.392Z,38.87
2018-09-12T22:21:21.771Z,42.27
2018-09-12T22:23:50.152Z,40.43
2018-09-12T22:26:18.493Z,39.27
2018-09-12T22:28:46.856Z,43.87
2018-09-12T22:31:15.185Z,38.30
2018-09-12T22:33:45.789Z,43.87
2018-09-12T22:36:14.316Z,41.27
2018-09-12T22:38:43.534Z,44.10
2018-09-12T22:41:12.077Z,42.43
2018-09-12T22:43:40.582Z,45.53
2018-09-12T22:46:09.060Z,37.23
2018-09-12T22:48:37.534Z,45.80
2018-09-12T22:51:05.932Z,41.67
2018-09-12T22:53:34.319Z,48.60
2018-09-12T22:56:02.748Z,47.47
2018-09-12T22:58:31.616Z,49.53
2018-09-12T23:00:59.973Z,48.90
2018-09-12T23:03:28.447Z,43.37
2018-09-12T23:05:56.894Z,44.17
2018-09-12T23:08:25.372Z,53.70
2018-09-12T23:10:54.376Z,50.93
2018-09-12T23:13:22.920Z,49.13
2018-09-12T23:15:51.260Z,47.23
2018-09-12T23:18:19.596Z,51.53
2018-09-12T23:20:47.934Z,46.47
2018-09-12T23:23:16.279Z,49.03
2018-09-12T23:25:44.604Z,52.37
2018-09-12T23:28:12.936Z,50.03
2018-09-12T23:30:43.245Z,56.90
2018-09-12T23:33:11.967Z,54.00
2018-09-12T23:35:40.763Z,59.20
2018-09-12T23:38:09.841Z,53.87
2018-09-12T23:40:38.397Z,53.17
2018-09-12T23:43:07.138Z,52.03
2018-09-12T23:45:35.594Z,57.87
2018-09-12T23:48:04.115Z,52.27
2018-09-12T23:50:32.664Z,60.10
2018-09-12T23:53:02.032Z,62.00
2018-09-12T23:55:30.406Z,69.00
2018-09-12T23:57:59.049Z,65.67
